Terminal Aerodrome Forecast
Issued by NWS

Home | Current Version | Previous Version | Graphics & Text | Print | Product List | Glossary On
Versions: 1 2 3 4 5 6 7 8 9 10 11 12 13 14 15 16 17 18 19 20 21 22 23 24 25 26
000
FTUS43 KABR 221726 AAA
TAFPIR
TAF AMD
KPIR 221726Z 2217/2318 30013KT P6SM SCT250
     FM222200 36012KT P6SM BKN100
     FM230100 02010KT P6SM OVC015
     FM231400 05013KT 2SM -SN OVC015=

USA.gov is the U.S. government's official web portal to all federal, state and local government web resources and services.